DAOO/ORN METAR and TAF weather

Enter ICAO airport designator
Station Type Date Time Source
DAOO METAR 2019/10/16 19:00 UTC NOAA

DAOO 161900Z 02002KT 9999 FEW026 19/14 Q1018


Station Type Date Time Source
DAOO Decoded METAR 2019/10/16 19:00 UTC NOAA

Oran / Es Senia, Algeria (DAOO) 35-38N 000-36W 90M
Oct 16, 2019 - 03:00 PM EDT / 2019.10.16 1900 UTC
Wind: from the NNE (020 degrees) at 2 MPH (2 KT):0
Visibility: greater than 7 mile(s):0
Sky conditions: mostly clear
Temperature: 66 F (19 C)
Dew Point: 57 F (14 C)
Relative Humidity: 72%
Pressure (altimeter): 30.06 in. Hg (1018 hPa)
ob: DAOO 161900Z 02002KT 9999 FEW026 19/14 Q1018
cycle: 19

Station Type Date Time Source
DAOO TAF 2019/10/16 18:33 UTC NOAA

TAF DAOO 161700Z 1618/1718 34011KT CAVOK
BECMG 1621/1624 VRB02KT PROB40
TEMPO 1704/1708 4000 BR FEW010

Example: see airport list